sensor_id;sensor_type;location;lat;lon;timestamp;P1;durP1;ratioP1;P2;durP2;ratioP2
735;SDS011;352;48.626;9.238;2023-06-10T00:01:51;9.33;;;8.50;;
735;SDS011;352;48.626;9.238;2023-06-10T00:04:20;9.57;;;8.77;;
735;SDS011;352;48.626;9.238;2023-06-10T00:06:47;10.10;;;9.33;;
735;SDS011;352;48.626;9.238;2023-06-10T00:09:15;8.80;;;8.10;;
735;SDS011;352;48.626;9.238;2023-06-10T00:11:43;9.50;;;8.80;;
735;SDS011;352;48.626;9.238;2023-06-10T00:14:10;9.87;;;9.03;;
735;SDS011;352;48.626;9.238;2023-06-10T00:16:37;9.83;;;9.03;;
735;SDS011;352;48.626;9.238;2023-06-10T00:19:04;8.90;;;8.30;;
735;SDS011;352;48.626;9.238;2023-06-10T00:21:33;9.77;;;9.07;;
735;SDS011;352;48.626;9.238;2023-06-10T00:24:02;9.37;;;8.53;;
735;SDS011;352;48.626;9.238;2023-06-10T00:26:31;9.13;;;8.37;;
735;SDS011;352;48.626;9.238;2023-06-10T00:28:58;9.77;;;9.07;;
735;SDS011;352;48.626;9.238;2023-06-10T00:31:25;10.30;;;9.40;;
735;SDS011;352;48.626;9.238;2023-06-10T00:33:52;10.87;;;9.87;;
735;SDS011;352;48.626;9.238;2023-06-10T00:36:19;9.50;;;8.80;;
735;SDS011;352;48.626;9.238;2023-06-10T00:38:45;10.30;;;9.50;;
735;SDS011;352;48.626;9.238;2023-06-10T00:41:12;9.93;;;9.20;;
735;SDS011;352;48.626;9.238;2023-06-10T00:43:40;9.47;;;8.70;;
735;SDS011;352;48.626;9.238;2023-06-10T00:46:07;10.37;;;9.57;;
735;SDS011;352;48.626;9.238;2023-06-10T00:48:34;9.57;;;8.77;;
735;SDS011;352;48.626;9.238;2023-06-10T00:51:01;11.07;;;9.93;;
735;SDS011;352;48.626;9.238;2023-06-10T00:53:28;10.20;;;9.43;;
735;SDS011;352;48.626;9.238;2023-06-10T00:55:55;10.50;;;9.70;;
735;SDS011;352;48.626;9.238;2023-06-10T00:58:22;9.50;;;8.80;;
735;SDS011;352;48.626;9.238;2023-06-10T01:00:51;9.30;;;8.60;;
735;SDS011;352;48.626;9.238;2023-06-10T01:03:18;9.33;;;8.50;;
735;SDS011;352;48.626;9.238;2023-06-10T01:05:45;10.03;;;9.13;;
735;SDS011;352;48.626;9.238;2023-06-10T01:08:19;10.03;;;9.23;;
735;SDS011;352;48.626;9.238;2023-06-10T01:10:54;10.03;;;9.03;;
735;SDS011;352;48.626;9.238;2023-06-10T01:13:23;9.60;;;8.80;;
735;SDS011;352;48.626;9.238;2023-06-10T01:15:55;9.37;;;8.50;;
735;SDS011;352;48.626;9.238;2023-06-10T01:18:22;10.50;;;9.50;;
735;SDS011;352;48.626;9.238;2023-06-10T01:20:48;10.00;;;9.30;;
735;SDS011;352;48.626;9.238;2023-06-10T01:23:18;9.73;;;8.90;;
735;SDS011;352;48.626;9.238;2023-06-10T01:25:49;10.00;;;9.20;;
735;SDS011;352;48.626;9.238;2023-06-10T01:28:21;10.40;;;9.50;;
735;SDS011;352;48.626;9.238;2023-06-10T01:30:53;10.10;;;9.33;;
735;SDS011;352;48.626;9.238;2023-06-10T01:33:27;9.73;;;8.93;;
735;SDS011;352;48.626;9.238;2023-06-10T01:35:57;10.90;;;10.00;;
735;SDS011;352;48.626;9.238;2023-06-10T01:38:27;10.20;;;9.47;;
735;SDS011;352;48.626;9.238;2023-06-10T01:40:58;9.90;;;9.20;;
735;SDS011;352;48.626;9.238;2023-06-10T01:43:26;10.80;;;9.90;;
735;SDS011;352;48.626;9.238;2023-06-10T01:45:52;10.03;;;9.10;;
735;SDS011;352;48.626;9.238;2023-06-10T01:48:19;10.80;;;9.80;;
735;SDS011;352;48.626;9.238;2023-06-10T01:50:46;9.87;;;9.17;;
735;SDS011;352;48.626;9.238;2023-06-10T01:53:12;11.27;;;10.37;;
735;SDS011;352;48.626;9.238;2023-06-10T01:55:40;10.20;;;9.40;;
735;SDS011;352;48.626;9.238;2023-06-10T01:58:07;10.10;;;9.20;;
735;SDS011;352;48.626;9.238;2023-06-10T02:00:34;10.80;;;9.97;;
735;SDS011;352;48.626;9.238;2023-06-10T02:03:00;10.03;;;9.13;;
735;SDS011;352;48.626;9.238;2023-06-10T02:05:27;10.50;;;9.57;;
735;SDS011;352;48.626;9.238;2023-06-10T02:07:54;10.60;;;9.70;;
735;SDS011;352;48.626;9.238;2023-06-10T02:10:20;10.10;;;9.30;;
735;SDS011;352;48.626;9.238;2023-06-10T02:12:49;9.23;;;8.53;;
735;SDS011;352;48.626;9.238;2023-06-10T02:15:15;10.30;;;9.50;;
735;SDS011;352;48.626;9.238;2023-06-10T02:17:42;11.27;;;10.17;;
735;SDS011;352;48.626;9.238;2023-06-10T02:20:10;10.80;;;10.00;;
735;SDS011;352;48.626;9.238;2023-06-10T02:22:38;10.77;;;9.80;;
735;SDS011;352;48.626;9.238;2023-06-10T02:25:06;10.93;;;9.80;;
735;SDS011;352;48.626;9.238;2023-06-10T02:27:33;10.87;;;9.97;;
735;SDS011;352;48.626;9.238;2023-06-10T02:30:01;11.37;;;10.47;;
735;SDS011;352;48.626;9.238;2023-06-10T02:32:28;11.03;;;10.23;;
735;SDS011;352;48.626;9.238;2023-06-10T02:34:55;10.60;;;9.80;;
735;SDS011;352;48.626;9.238;2023-06-10T02:37:22;11.93;;;11.03;;
735;SDS011;352;48.626;9.238;2023-06-10T02:39:49;11.83;;;10.20;;
735;SDS011;352;48.626;9.238;2023-06-10T02:42:16;11.00;;;10.20;;
735;SDS011;352;48.626;9.238;2023-06-10T02:44:42;11.03;;;10.13;;
735;SDS011;352;48.626;9.238;2023-06-10T02:47:11;9.80;;;9.00;;
735;SDS011;352;48.626;9.238;2023-06-10T02:49:38;11.53;;;10.73;;
735;SDS011;352;48.626;9.238;2023-06-10T02:52:05;11.23;;;10.33;;
735;SDS011;352;48.626;9.238;2023-06-10T02:54:33;10.80;;;10.00;;
735;SDS011;352;48.626;9.238;2023-06-10T02:57:00;11.60;;;10.60;;
735;SDS011;352;48.626;9.238;2023-06-10T02:59:27;12.47;;;11.40;;
735;SDS011;352;48.626;9.238;2023-06-10T03:01:54;11.90;;;11.00;;
735;SDS011;352;48.626;9.238;2023-06-10T03:04:22;11.30;;;10.40;;
735;SDS011;352;48.626;9.238;2023-06-10T03:06:50;12.50;;;11.40;;
735;SDS011;352;48.626;9.238;2023-06-10T03:09:17;11.33;;;10.53;;
735;SDS011;352;48.626;9.238;2023-06-10T03:11:43;10.90;;;10.00;;
735;SDS011;352;48.626;9.238;2023-06-10T03:14:10;11.67;;;10.57;;
735;SDS011;352;48.626;9.238;2023-06-10T03:16:37;11.50;;;10.60;;
735;SDS011;352;48.626;9.238;2023-06-10T03:19:05;11.57;;;10.57;;
735;SDS011;352;48.626;9.238;2023-06-10T03:21:33;11.50;;;10.60;;
735;SDS011;352;48.626;9.238;2023-06-10T03:24:02;11.33;;;10.43;;
735;SDS011;352;48.626;9.238;2023-06-10T03:26:29;11.50;;;10.50;;
735;SDS011;352;48.626;9.238;2023-06-10T03:28:55;11.30;;;10.30;;
735;SDS011;352;48.626;9.238;2023-06-10T03:31:22;12.37;;;11.27;;
735;SDS011;352;48.626;9.238;2023-06-10T03:33:49;11.90;;;10.80;;
735;SDS011;352;48.626;9.238;2023-06-10T03:36:16;12.53;;;11.53;;
735;SDS011;352;48.626;9.238;2023-06-10T03:38:44;10.97;;;10.07;;
735;SDS011;352;48.626;9.238;2023-06-10T03:41:11;11.10;;;10.10;;
735;SDS011;352;48.626;9.238;2023-06-10T03:43:37;11.53;;;10.53;;
735;SDS011;352;48.626;9.238;2023-06-10T03:46:05;10.63;;;9.83;;
735;SDS011;352;48.626;9.238;2023-06-10T03:48:32;11.57;;;10.60;;
735;SDS011;352;48.626;9.238;2023-06-10T03:50:59;12.10;;;11.20;;
735;SDS011;352;48.626;9.238;2023-06-10T03:53:26;10.50;;;9.70;;
735;SDS011;352;48.626;9.238;2023-06-10T03:55:54;10.87;;;9.97;;
735;SDS011;352;48.626;9.238;2023-06-10T03:58:22;10.37;;;9.57;;
735;SDS011;352;48.626;9.238;2023-06-10T04:00:49;10.63;;;9.77;;
735;SDS011;352;48.626;9.238;2023-06-10T04:03:15;11.30;;;10.40;;
735;SDS011;352;48.626;9.238;2023-06-10T04:05:42;10.07;;;9.30;;
735;SDS011;352;48.626;9.238;2023-06-10T04:08:09;11.30;;;10.30;;
735;SDS011;352;48.626;9.238;2023-06-10T04:10:36;10.73;;;9.77;;
735;SDS011;352;48.626;9.238;2023-06-10T04:13:04;12.00;;;11.10;;
735;SDS011;352;48.626;9.238;2023-06-10T04:15:30;18.30;;;12.00;;
735;SDS011;352;48.626;9.238;2023-06-10T04:17:58;11.60;;;10.63;;
735;SDS011;352;48.626;9.238;2023-06-10T04:20:26;12.07;;;10.87;;
735;SDS011;352;48.626;9.238;2023-06-10T04:22:53;11.70;;;10.83;;
735;SDS011;352;48.626;9.238;2023-06-10T04:25:19;11.20;;;10.40;;
735;SDS011;352;48.626;9.238;2023-06-10T04:27:46;12.47;;;11.47;;
735;SDS011;352;48.626;9.238;2023-06-10T04:30:15;11.47;;;10.47;;
735;SDS011;352;48.626;9.238;2023-06-10T04:32:42;11.17;;;10.27;;
735;SDS011;352;48.626;9.238;2023-06-10T04:35:11;11.33;;;10.20;;
735;SDS011;352;48.626;9.238;2023-06-10T04:37:39;11.80;;;10.80;;
735;SDS011;352;48.626;9.238;2023-06-10T04:40:06;10.57;;;9.57;;
735;SDS011;352;48.626;9.238;2023-06-10T04:42:33;11.30;;;10.30;;
735;SDS011;352;48.626;9.238;2023-06-10T04:45:00;11.53;;;10.60;;
735;SDS011;352;48.626;9.238;2023-06-10T04:47:28;11.03;;;10.13;;
735;SDS011;352;48.626;9.238;2023-06-10T04:49:58;11.63;;;10.63;;
735;SDS011;352;48.626;9.238;2023-06-10T04:52:25;11.20;;;10.20;;
735;SDS011;352;48.626;9.238;2023-06-10T04:54:51;11.63;;;10.70;;
735;SDS011;352;48.626;9.238;2023-06-10T04:57:18;11.10;;;10.30;;
735;SDS011;352;48.626;9.238;2023-06-10T04:59:45;10.57;;;9.77;;
735;SDS011;352;48.626;9.238;2023-06-10T05:02:12;9.93;;;9.13;;
735;SDS011;352;48.626;9.238;2023-06-10T05:04:40;10.90;;;10.00;;
735;SDS011;352;48.626;9.238;2023-06-10T05:07:06;11.27;;;9.97;;
735;SDS011;352;48.626;9.238;2023-06-10T05:09:33;11.60;;;10.70;;
735;SDS011;352;48.626;9.238;2023-06-10T05:12:00;10.60;;;9.70;;
735;SDS011;352;48.626;9.238;2023-06-10T05:14:27;10.93;;;9.90;;
735;SDS011;352;48.626;9.238;2023-06-10T05:16:54;10.50;;;9.70;;
735;SDS011;352;48.626;9.238;2023-06-10T05:19:21;11.77;;;10.40;;
735;SDS011;352;48.626;9.238;2023-06-10T05:21:49;10.07;;;9.37;;
735;SDS011;352;48.626;9.238;2023-06-10T05:24:15;9.80;;;9.10;;
735;SDS011;352;48.626;9.238;2023-06-10T05:26:42;11.17;;;10.27;;
735;SDS011;352;48.626;9.238;2023-06-10T05:29:09;11.30;;;10.40;;
735;SDS011;352;48.626;9.238;2023-06-10T05:31:36;11.10;;;10.30;;
735;SDS011;352;48.626;9.238;2023-06-10T05:34:03;10.57;;;9.67;;
735;SDS011;352;48.626;9.238;2023-06-10T05:36:30;9.90;;;9.20;;
735;SDS011;352;48.626;9.238;2023-06-10T05:38:58;10.47;;;9.67;;
735;SDS011;352;48.626;9.238;2023-06-10T05:41:25;10.00;;;9.20;;
735;SDS011;352;48.626;9.238;2023-06-10T05:43:52;10.40;;;9.70;;
735;SDS011;352;48.626;9.238;2023-06-10T05:46:19;9.43;;;8.70;;
735;SDS011;352;48.626;9.238;2023-06-10T05:48:46;9.37;;;8.60;;
735;SDS011;352;48.626;9.238;2023-06-10T05:51:12;9.03;;;8.23;;
735;SDS011;352;48.626;9.238;2023-06-10T05:53:39;9.83;;;9.00;;
735;SDS011;352;48.626;9.238;2023-06-10T05:56:07;9.37;;;8.60;;
735;SDS011;352;48.626;9.238;2023-06-10T05:58:34;10.00;;;9.10;;
735;SDS011;352;48.626;9.238;2023-06-10T06:01:01;9.10;;;8.40;;
735;SDS011;352;48.626;9.238;2023-06-10T06:03:27;8.60;;;7.93;;
735;SDS011;352;48.626;9.238;2023-06-10T06:05:54;9.90;;;9.20;;
735;SDS011;352;48.626;9.238;2023-06-10T06:08:21;9.37;;;8.57;;
735;SDS011;352;48.626;9.238;2023-06-10T06:10:48;9.17;;;8.37;;
735;SDS011;352;48.626;9.238;2023-06-10T06:13:16;9.40;;;8.80;;
735;SDS011;352;48.626;9.238;2023-06-10T06:15:42;8.27;;;7.67;;
735;SDS011;352;48.626;9.238;2023-06-10T06:18:09;8.03;;;7.53;;
735;SDS011;352;48.626;9.238;2023-06-10T06:20:36;8.60;;;7.90;;
735;SDS011;352;48.626;9.238;2023-06-10T06:23:03;8.83;;;8.23;;
735;SDS011;352;48.626;9.238;2023-06-10T06:25:29;8.90;;;8.30;;
735;SDS011;352;48.626;9.238;2023-06-10T06:27:56;8.90;;;8.30;;
735;SDS011;352;48.626;9.238;2023-06-10T06:30:24;8.07;;;7.47;;
735;SDS011;352;48.626;9.238;2023-06-10T06:32:51;7.40;;;6.83;;
735;SDS011;352;48.626;9.238;2023-06-10T06:35:18;8.23;;;7.63;;
735;SDS011;352;48.626;9.238;2023-06-10T06:37:44;8.10;;;7.30;;
735;SDS011;352;48.626;9.238;2023-06-10T06:40:11;8.60;;;7.90;;
735;SDS011;352;48.626;9.238;2023-06-10T06:42:38;8.10;;;7.53;;
735;SDS011;352;48.626;9.238;2023-06-10T06:45:06;8.37;;;7.80;;
735;SDS011;352;48.626;9.238;2023-06-10T06:47:34;7.93;;;7.27;;
735;SDS011;352;48.626;9.238;2023-06-10T06:50:03;8.43;;;7.73;;
735;SDS011;352;48.626;9.238;2023-06-10T06:52:30;8.40;;;7.80;;
735;SDS011;352;48.626;9.238;2023-06-10T06:54:56;8.70;;;8.00;;
735;SDS011;352;48.626;9.238;2023-06-10T06:57:23;8.40;;;7.80;;
735;SDS011;352;48.626;9.238;2023-06-10T06:59:50;7.60;;;7.03;;
735;SDS011;352;48.626;9.238;2023-06-10T07:02:16;7.60;;;7.00;;
735;SDS011;352;48.626;9.238;2023-06-10T07:04:45;8.30;;;7.70;;
735;SDS011;352;48.626;9.238;2023-06-10T07:07:14;8.87;;;8.17;;
735;SDS011;352;48.626;9.238;2023-06-10T07:09:40;8.20;;;7.60;;
735;SDS011;352;48.626;9.238;2023-06-10T07:12:08;6.83;;;6.33;;
735;SDS011;352;48.626;9.238;2023-06-10T07:14:46;7.60;;;7.10;;
735;SDS011;352;48.626;9.238;2023-06-10T07:17:34;7.73;;;7.13;;
735;SDS011;352;48.626;9.238;2023-06-10T07:20:02;7.20;;;6.50;;
735;SDS011;352;48.626;9.238;2023-06-10T07:22:29;7.33;;;6.73;;
735;SDS011;352;48.626;9.238;2023-06-10T07:24:56;6.43;;;5.93;;
735;SDS011;352;48.626;9.238;2023-06-10T07:27:23;7.80;;;7.30;;
735;SDS011;352;48.626;9.238;2023-06-10T07:29:50;7.40;;;6.90;;
735;SDS011;352;48.626;9.238;2023-06-10T07:32:18;7.57;;;6.83;;
735;SDS011;352;48.626;9.238;2023-06-10T07:34:47;7.50;;;7.00;;
735;SDS011;352;48.626;9.238;2023-06-10T07:37:19;8.07;;;7.27;;
735;SDS011;352;48.626;9.238;2023-06-10T07:45:48;7.20;;;6.70;;
735;SDS011;352;48.626;9.238;2023-06-10T07:48:15;7.63;;;7.13;;
735;SDS011;352;48.626;9.238;2023-06-10T07:50:42;9.63;;;7.20;;
735;SDS011;352;48.626;9.238;2023-06-10T07:53:10;7.30;;;6.70;;
735;SDS011;352;48.626;9.238;2023-06-10T07:55:36;7.80;;;6.90;;
735;SDS011;352;48.626;9.238;2023-06-10T07:58:03;7.00;;;6.50;;
735;SDS011;352;48.626;9.238;2023-06-10T08:00:30;7.37;;;6.80;;
735;SDS011;352;48.626;9.238;2023-06-10T08:02:56;7.17;;;6.57;;
735;SDS011;352;48.626;9.238;2023-06-10T08:05:23;6.67;;;6.20;;
735;SDS011;352;48.626;9.238;2023-06-10T08:07:51;7.30;;;6.60;;
735;SDS011;352;48.626;9.238;2023-06-10T08:10:19;6.70;;;6.20;;
735;SDS011;352;48.626;9.238;2023-06-10T08:12:45;7.27;;;6.70;;
735;SDS011;352;48.626;9.238;2023-06-10T08:15:12;7.17;;;6.67;;
735;SDS011;352;48.626;9.238;2023-06-10T08:17:39;7.10;;;6.30;;
735;SDS011;352;48.626;9.238;2023-06-10T08:20:06;6.77;;;6.27;;
735;SDS011;352;48.626;9.238;2023-06-10T08:22:33;7.37;;;6.87;;
735;SDS011;352;48.626;9.238;2023-06-10T08:25:00;7.20;;;6.70;;
735;SDS011;352;48.626;9.238;2023-06-10T08:27:28;6.60;;;6.20;;
735;SDS011;352;48.626;9.238;2023-06-10T08:29:55;7.10;;;6.60;;
735;SDS011;352;48.626;9.238;2023-06-10T08:32:23;6.80;;;6.40;;
735;SDS011;352;48.626;9.238;2023-06-10T08:34:49;7.10;;;6.57;;
735;SDS011;352;48.626;9.238;2023-06-10T08:37:16;6.70;;;5.33;;
735;SDS011;352;48.626;9.238;2023-06-10T08:39:43;6.63;;;6.20;;
735;SDS011;352;48.626;9.238;2023-06-10T08:42:11;6.57;;;6.17;;
735;SDS011;352;48.626;9.238;2023-06-10T08:44:43;6.00;;;5.50;;
735;SDS011;352;48.626;9.238;2023-06-10T08:47:13;6.30;;;5.77;;
735;SDS011;352;48.626;9.238;2023-06-10T08:49:41;6.43;;;6.03;;
735;SDS011;352;48.626;9.238;2023-06-10T08:52:11;6.50;;;6.10;;
735;SDS011;352;48.626;9.238;2023-06-10T08:54:42;5.47;;;4.97;;
735;SDS011;352;48.626;9.238;2023-06-10T08:57:09;6.07;;;5.67;;
735;SDS011;352;48.626;9.238;2023-06-10T08:59:36;6.53;;;6.07;;
735;SDS011;352;48.626;9.238;2023-06-10T09:02:05;6.50;;;6.00;;
735;SDS011;352;48.626;9.238;2023-06-10T09:04:34;5.87;;;5.57;;
735;SDS011;352;48.626;9.238;2023-06-10T09:07:02;5.60;;;5.30;;
735;SDS011;352;48.626;9.238;2023-06-10T09:09:31;6.07;;;5.67;;
735;SDS011;352;48.626;9.238;2023-06-10T09:12:00;6.17;;;5.77;;
735;SDS011;352;48.626;9.238;2023-06-10T09:14:27;6.10;;;5.63;;
735;SDS011;352;48.626;9.238;2023-06-10T09:16:54;5.30;;;4.90;;
735;SDS011;352;48.626;9.238;2023-06-10T09:19:24;6.10;;;5.70;;
735;SDS011;352;48.626;9.238;2023-06-10T09:21:53;7.00;;;5.90;;
735;SDS011;352;48.626;9.238;2023-06-10T09:24:20;5.90;;;5.60;;
735;SDS011;352;48.626;9.238;2023-06-10T09:26:48;6.17;;;5.77;;
735;SDS011;352;48.626;9.238;2023-06-10T09:29:16;5.63;;;5.23;;
735;SDS011;352;48.626;9.238;2023-06-10T09:31:43;5.90;;;5.50;;
735;SDS011;352;48.626;9.238;2023-06-10T09:34:11;6.60;;;6.00;;
735;SDS011;352;48.626;9.238;2023-06-10T09:36:40;6.03;;;5.63;;
735;SDS011;352;48.626;9.238;2023-06-10T09:39:13;6.47;;;5.87;;
735;SDS011;352;48.626;9.238;2023-06-10T09:41:41;6.30;;;5.80;;
735;SDS011;352;48.626;9.238;2023-06-10T09:44:11;5.93;;;5.50;;
735;SDS011;352;48.626;9.238;2023-06-10T09:46:39;5.13;;;4.83;;
735;SDS011;352;48.626;9.238;2023-06-10T09:49:05;6.47;;;5.90;;
735;SDS011;352;48.626;9.238;2023-06-10T09:51:32;6.67;;;6.17;;
735;SDS011;352;48.626;9.238;2023-06-10T09:54:00;6.20;;;5.67;;
735;SDS011;352;48.626;9.238;2023-06-10T09:56:34;6.77;;;6.27;;
735;SDS011;352;48.626;9.238;2023-06-10T09:59:02;6.27;;;5.83;;
735;SDS011;352;48.626;9.238;2023-06-10T10:01:31;5.90;;;5.37;;
735;SDS011;352;48.626;9.238;2023-06-10T10:03:58;6.40;;;5.90;;
735;SDS011;352;48.626;9.238;2023-06-10T10:06:26;6.00;;;5.40;;
735;SDS011;352;48.626;9.238;2023-06-10T10:08:54;6.10;;;5.70;;
735;SDS011;352;48.626;9.238;2023-06-10T10:11:22;5.30;;;5.00;;
735;SDS011;352;48.626;9.238;2023-06-10T10:13:51;5.23;;;4.93;;
735;SDS011;352;48.626;9.238;2023-06-10T10:16:19;5.83;;;5.53;;
735;SDS011;352;48.626;9.238;2023-06-10T10:18:49;6.23;;;5.83;;
735;SDS011;352;48.626;9.238;2023-06-10T10:21:20;6.33;;;5.80;;
735;SDS011;352;48.626;9.238;2023-06-10T10:23:51;6.10;;;5.50;;
735;SDS011;352;48.626;9.238;2023-06-10T10:26:21;5.63;;;5.13;;
735;SDS011;352;48.626;9.238;2023-06-10T10:28:53;6.30;;;5.80;;
735;SDS011;352;48.626;9.238;2023-06-10T10:31:28;5.50;;;5.20;;
735;SDS011;352;48.626;9.238;2023-06-10T10:33:58;6.70;;;6.10;;
735;SDS011;352;48.626;9.238;2023-06-10T10:36:27;6.00;;;5.60;;
735;SDS011;352;48.626;9.238;2023-06-10T10:38:54;6.20;;;5.70;;
735;SDS011;352;48.626;9.238;2023-06-10T10:41:23;5.93;;;5.63;;
735;SDS011;352;48.626;9.238;2023-06-10T10:43:52;6.40;;;5.03;;
735;SDS011;352;48.626;9.238;2023-06-10T10:46:20;6.30;;;5.90;;
735;SDS011;352;48.626;9.238;2023-06-10T10:48:50;4.97;;;4.67;;
735;SDS011;352;48.626;9.238;2023-06-10T10:51:18;5.10;;;4.80;;
735;SDS011;352;48.626;9.238;2023-06-10T10:53:49;5.60;;;5.20;;
735;SDS011;352;48.626;9.238;2023-06-10T10:56:37;5.73;;;5.33;;
735;SDS011;352;48.626;9.238;2023-06-10T10:59:04;6.23;;;5.70;;
735;SDS011;352;48.626;9.238;2023-06-10T11:01:39;5.70;;;5.30;;
735;SDS011;352;48.626;9.238;2023-06-10T11:04:07;6.03;;;5.57;;
735;SDS011;352;48.626;9.238;2023-06-10T11:06:33;6.13;;;5.73;;
735;SDS011;352;48.626;9.238;2023-06-10T11:09:00;6.63;;;6.13;;
735;SDS011;352;48.626;9.238;2023-06-10T11:11:50;6.20;;;5.80;;
735;SDS011;352;48.626;9.238;2023-06-10T11:14:26;6.60;;;6.10;;
735;SDS011;352;48.626;9.238;2023-06-10T11:16:56;6.10;;;5.60;;
735;SDS011;352;48.626;9.238;2023-06-10T11:19:32;6.50;;;6.10;;
735;SDS011;352;48.626;9.238;2023-06-10T11:21:59;6.33;;;5.93;;
735;SDS011;352;48.626;9.238;2023-06-10T11:24:28;6.03;;;5.63;;
735;SDS011;352;48.626;9.238;2023-06-10T11:26:56;5.63;;;5.30;;
735;SDS011;352;48.626;9.238;2023-06-10T11:29:54;6.10;;;5.60;;
735;SDS011;352;48.626;9.238;2023-06-10T11:32:22;6.37;;;5.97;;
735;SDS011;352;48.626;9.238;2023-06-10T11:34:51;5.73;;;5.33;;
735;SDS011;352;48.626;9.238;2023-06-10T11:37:19;6.40;;;5.97;;
735;SDS011;352;48.626;9.238;2023-06-10T11:39:46;5.50;;;5.20;;
735;SDS011;352;48.626;9.238;2023-06-10T11:42:15;6.10;;;5.70;;
735;SDS011;352;48.626;9.238;2023-06-10T11:44:47;6.37;;;5.87;;
735;SDS011;352;48.626;9.238;2023-06-10T11:47:14;6.10;;;5.70;;
735;SDS011;352;48.626;9.238;2023-06-10T11:49:41;6.67;;;6.10;;
735;SDS011;352;48.626;9.238;2023-06-10T11:52:26;5.47;;;5.07;;
735;SDS011;352;48.626;9.238;2023-06-10T11:54:54;5.93;;;5.53;;
735;SDS011;352;48.626;9.238;2023-06-10T11:57:22;6.57;;;6.10;;
735;SDS011;352;48.626;9.238;2023-06-10T11:59:49;5.67;;;5.17;;
735;SDS011;352;48.626;9.238;2023-06-10T12:02:16;7.67;;;5.27;;
735;SDS011;352;48.626;9.238;2023-06-10T12:04:44;5.73;;;5.37;;
735;SDS011;352;48.626;9.238;2023-06-10T12:07:16;5.90;;;5.50;;
735;SDS011;352;48.626;9.238;2023-06-10T12:09:43;5.77;;;5.37;;
735;SDS011;352;48.626;9.238;2023-06-10T12:12:10;5.50;;;5.10;;
735;SDS011;352;48.626;9.238;2023-06-10T12:14:51;5.40;;;5.10;;
735;SDS011;352;48.626;9.238;2023-06-10T12:17:23;5.70;;;5.30;;
735;SDS011;352;48.626;9.238;2023-06-10T12:20:02;5.87;;;5.47;;
735;SDS011;352;48.626;9.238;2023-06-10T12:22:35;5.30;;;4.80;;
735;SDS011;352;48.626;9.238;2023-06-10T12:25:03;6.00;;;5.60;;
735;SDS011;352;48.626;9.238;2023-06-10T12:27:31;5.30;;;4.90;;
735;SDS011;352;48.626;9.238;2023-06-10T12:30:01;5.97;;;5.47;;
735;SDS011;352;48.626;9.238;2023-06-10T12:32:36;5.77;;;5.37;;
735;SDS011;352;48.626;9.238;2023-06-10T12:35:05;5.50;;;5.10;;
735;SDS011;352;48.626;9.238;2023-06-10T12:37:32;5.00;;;4.60;;
735;SDS011;352;48.626;9.238;2023-06-10T12:39:59;4.90;;;4.60;;
735;SDS011;352;48.626;9.238;2023-06-10T12:42:27;5.10;;;4.70;;
735;SDS011;352;48.626;9.238;2023-06-10T12:44:55;5.60;;;5.27;;
735;SDS011;352;48.626;9.238;2023-06-10T12:47:30;5.00;;;4.60;;
735;SDS011;352;48.626;9.238;2023-06-10T12:49:57;17.37;;;15.70;;
735;SDS011;352;48.626;9.238;2023-06-10T12:52:24;22.07;;;19.87;;
735;SDS011;352;48.626;9.238;2023-06-10T12:54:51;7.60;;;6.90;;
735;SDS011;352;48.626;9.238;2023-06-10T12:57:19;4.93;;;4.53;;
735;SDS011;352;48.626;9.238;2023-06-10T12:59:45;5.27;;;4.77;;
735;SDS011;352;48.626;9.238;2023-06-10T13:02:17;6.00;;;5.13;;
735;SDS011;352;48.626;9.238;2023-06-10T13:04:46;5.50;;;5.10;;
735;SDS011;352;48.626;9.238;2023-06-10T13:07:12;5.87;;;5.47;;
735;SDS011;352;48.626;9.238;2023-06-10T13:09:39;5.47;;;5.17;;
735;SDS011;352;48.626;9.238;2023-06-10T13:12:06;6.57;;;6.17;;
735;SDS011;352;48.626;9.238;2023-06-10T13:14:34;6.00;;;5.50;;
735;SDS011;352;48.626;9.238;2023-06-10T13:17:02;6.20;;;5.70;;
735;SDS011;352;48.626;9.238;2023-06-10T13:19:30;5.23;;;4.93;;
735;SDS011;352;48.626;9.238;2023-06-10T13:21:59;5.70;;;5.30;;
735;SDS011;352;48.626;9.238;2023-06-10T13:24:26;6.10;;;5.70;;
735;SDS011;352;48.626;9.238;2023-06-10T13:26:52;5.80;;;5.40;;
735;SDS011;352;48.626;9.238;2023-06-10T13:29:19;7.37;;;5.50;;
735;SDS011;352;48.626;9.238;2023-06-10T13:31:46;5.43;;;5.03;;
735;SDS011;352;48.626;9.238;2023-06-10T13:34:13;5.40;;;5.00;;
735;SDS011;352;48.626;9.238;2023-06-10T13:36:39;4.93;;;4.53;;
735;SDS011;352;48.626;9.238;2023-06-10T13:39:07;5.40;;;5.00;;
735;SDS011;352;48.626;9.238;2023-06-10T13:41:34;4.93;;;4.53;;
735;SDS011;352;48.626;9.238;2023-06-10T13:44:01;5.00;;;4.70;;
735;SDS011;352;48.626;9.238;2023-06-10T13:46:28;5.30;;;4.90;;
735;SDS011;352;48.626;9.238;2023-06-10T13:48:54;5.30;;;4.90;;
735;SDS011;352;48.626;9.238;2023-06-10T13:51:21;5.20;;;4.80;;
735;SDS011;352;48.626;9.238;2023-06-10T13:53:47;5.50;;;5.10;;
735;SDS011;352;48.626;9.238;2023-06-10T13:56:18;5.30;;;4.90;;
735;SDS011;352;48.626;9.238;2023-06-10T13:58:44;5.47;;;5.07;;
735;SDS011;352;48.626;9.238;2023-06-10T14:01:11;5.70;;;5.30;;
735;SDS011;352;48.626;9.238;2023-06-10T14:03:38;4.53;;;4.17;;
735;SDS011;352;48.626;9.238;2023-06-10T14:06:04;6.40;;;4.87;;
735;SDS011;352;48.626;9.238;2023-06-10T14:08:31;5.87;;;5.30;;
735;SDS011;352;48.626;9.238;2023-06-10T14:10:58;5.47;;;5.07;;
735;SDS011;352;48.626;9.238;2023-06-10T14:13:26;5.03;;;4.70;;
735;SDS011;352;48.626;9.238;2023-06-10T14:15:53;6.30;;;5.90;;
735;SDS011;352;48.626;9.238;2023-06-10T14:18:19;5.90;;;5.50;;
735;SDS011;352;48.626;9.238;2023-06-10T14:20:46;5.30;;;5.00;;
735;SDS011;352;48.626;9.238;2023-06-10T14:23:13;5.03;;;4.57;;
735;SDS011;352;48.626;9.238;2023-06-10T14:25:39;5.60;;;5.10;;
735;SDS011;352;48.626;9.238;2023-06-10T14:28:06;5.23;;;4.83;;
735;SDS011;352;48.626;9.238;2023-06-10T14:30:34;5.00;;;4.60;;
735;SDS011;352;48.626;9.238;2023-06-10T14:33:01;5.53;;;4.93;;
735;SDS011;352;48.626;9.238;2023-06-10T14:35:28;5.00;;;4.70;;
735;SDS011;352;48.626;9.238;2023-06-10T14:37:54;6.00;;;5.50;;
735;SDS011;352;48.626;9.238;2023-06-10T14:40:21;5.63;;;5.23;;
735;SDS011;352;48.626;9.238;2023-06-10T14:42:49;5.87;;;5.47;;
735;SDS011;352;48.626;9.238;2023-06-10T14:45:16;5.93;;;5.53;;
735;SDS011;352;48.626;9.238;2023-06-10T14:47:44;5.80;;;5.30;;
735;SDS011;352;48.626;9.238;2023-06-10T14:50:12;5.70;;;5.30;;
735;SDS011;352;48.626;9.238;2023-06-10T14:52:38;5.87;;;5.47;;
735;SDS011;352;48.626;9.238;2023-06-10T14:55:05;5.73;;;5.33;;
735;SDS011;352;48.626;9.238;2023-06-10T14:57:32;6.17;;;5.67;;
735;SDS011;352;48.626;9.238;2023-06-10T14:59:59;5.47;;;5.07;;
735;SDS011;352;48.626;9.238;2023-06-10T15:02:26;5.53;;;5.23;;
735;SDS011;352;48.626;9.238;2023-06-10T15:04:54;9.03;;;5.10;;
735;SDS011;352;48.626;9.238;2023-06-10T15:07:21;5.60;;;5.20;;
735;SDS011;352;48.626;9.238;2023-06-10T15:09:47;6.33;;;5.93;;
735;SDS011;352;48.626;9.238;2023-06-10T15:12:14;5.07;;;4.77;;
735;SDS011;352;48.626;9.238;2023-06-10T15:14:41;5.60;;;5.27;;
735;SDS011;352;48.626;9.238;2023-06-10T15:17:07;4.97;;;4.67;;
735;SDS011;352;48.626;9.238;2023-06-10T15:19:34;6.27;;;5.80;;
735;SDS011;352;48.626;9.238;2023-06-10T15:22:02;5.70;;;5.30;;
735;SDS011;352;48.626;9.238;2023-06-10T15:24:29;6.20;;;5.80;;
735;SDS011;352;48.626;9.238;2023-06-10T15:26:56;5.13;;;4.83;;
735;SDS011;352;48.626;9.238;2023-06-10T15:32:42;5.87;;;5.37;;
735;SDS011;352;48.626;9.238;2023-06-10T15:35:09;6.20;;;4.97;;
735;SDS011;352;48.626;9.238;2023-06-10T15:37:38;6.07;;;5.47;;
735;SDS011;352;48.626;9.238;2023-06-10T15:40:05;5.73;;;5.23;;
735;SDS011;352;48.626;9.238;2023-06-10T15:42:33;5.90;;;5.50;;
735;SDS011;352;48.626;9.238;2023-06-10T15:44:59;5.80;;;5.40;;
735;SDS011;352;48.626;9.238;2023-06-10T15:47:26;7.80;;;7.23;;
735;SDS011;352;48.626;9.238;2023-06-10T15:49:53;5.83;;;5.43;;
735;SDS011;352;48.626;9.238;2023-06-10T15:52:20;6.13;;;5.63;;